RMB weather

Buraimi Airport
Buraimi, Al Buraimi Governorate, Oman

Public forecast

Using degrees Celsius for public forecast. Weather courtesy of forecast.io.

METAR (pilot weather report)

Closest report is Al Ain International Airport, 9.7 nm (17.9 km) W. Retrieved 2019/04/21 21:00 UTC (45 minutes ago):

OMAL 212100Z 14008KT CAVOK 32/08 Q1006 NOSIG

TAF (pilot weather forecast)

Closest forecast is Al Ain International Airport, 9.7 nm (17.9 km) W. Retrieved 2019/04/21 18:01 UTC (4 hours ago):

TAF OMAL 211700Z 2118/2300 01008KT 8000 NSC BECMG 2118/2120 16014KT BECMG 2209/2211 26009KT BECMG 2215/2217 10010KT